Time;durP1;ratioP1;P1;durP2;ratioP2;P2;SDS_P1;SDS_P2;PMS_P1;PMS_P2;Temp;Humidity;BMP_temperature;BMP_pressure;BME280_temperature;BME280_humidity;BME280_pressure;Samples;Min_cycle;Max_cycle;Signal;HPM_P1;HPM_P2
2023/04/25 00:00:52;;;;;;;1.85;1.67;;;11.20;97.80;;;;;;5052857;28;20096;-73
2023/04/25 00:03:19;;;;;;;4.28;2.00;;;11.20;97.70;;;;;;5053170;28;20029;-67
2023/04/25 00:05:45;;;;;;;3.63;1.80;;;11.20;97.80;;;;;;5053149;28;20132;-68
2023/04/25 00:08:11;;;;;;;2.10;1.80;;;11.20;98.00;;;;;;5052831;28;20377;-68
2023/04/25 00:10:37;;;;;;;3.58;2.25;;;11.20;97.60;;;;;;5050746;28;20510;-67
2023/04/25 00:13:02;;;;;;;2.63;2.08;;;11.20;97.70;;;;;;5052717;28;20029;-68
2023/04/25 00:15:30;;;;;;;3.25;1.80;;;11.20;97.60;;;;;;5052676;28;20036;-67
2023/04/25 00:17:56;;;;;;;4.68;1.70;;;11.20;97.50;;;;;;5052651;28;20017;-67
2023/04/25 00:20:23;;;;;;;4.20;2.22;;;11.20;97.30;;;;;;5052719;28;20517;-67
2023/04/25 00:22:49;;;;;;;2.63;2.22;;;11.10;97.20;;;;;;5052996;28;20099;-67
2023/04/25 00:25:15;;;;;;;2.55;1.90;;;11.20;97.00;;;;;;5052515;28;20258;-68
2023/04/25 00:27:41;;;;;;;2.58;1.80;;;11.10;96.90;;;;;;5052877;28;20024;-68
2023/04/25 00:30:07;;;;;;;3.05;2.00;;;11.20;96.90;;;;;;5052454;28;20150;-67
2023/04/25 00:32:33;;;;;;;2.30;1.90;;;11.20;96.70;;;;;;5052554;28;20381;-67
2023/04/25 00:34:59;;;;;;;4.97;2.13;;;11.20;96.70;;;;;;5052411;28;20031;-68
2023/04/25 00:37:25;;;;;;;3.17;2.15;;;11.20;96.50;;;;;;5052662;28;20036;-67
2023/04/25 00:39:51;;;;;;;2.97;2.22;;;11.10;96.50;;;;;;5052763;28;20017;-67
2023/04/25 00:42:16;;;;;;;3.65;2.28;;;11.10;96.50;;;;;;5052352;28;20032;-67
2023/04/25 00:44:44;;;;;;;2.88;1.92;;;11.10;96.50;;;;;;5052639;28;20045;-67
2023/04/25 00:47:11;;;;;;;3.03;1.98;;;11.10;96.50;;;;;;5051083;28;20020;-67
2023/04/25 00:49:36;;;;;;;3.97;1.83;;;11.10;96.50;;;;;;5052362;28;20021;-67
2023/04/25 00:52:02;;;;;;;3.97;1.90;;;11.10;96.50;;;;;;5052320;28;20025;-68
2023/04/25 00:54:28;;;;;;;3.17;1.88;;;11.10;96.60;;;;;;5052890;28;20033;-68
2023/04/25 00:56:54;;;;;;;5.25;1.90;;;11.10;96.50;;;;;;5052690;28;20040;-67
2023/04/25 00:59:20;;;;;;;1.92;1.70;;;11.10;96.50;;;;;;5051946;28;20025;-67
2023/04/25 01:01:46;;;;;;;3.03;2.15;;;11.10;96.40;;;;;;5052542;28;20024;-67
2023/04/25 01:04:13;;;;;;;2.80;2.10;;;11.00;96.40;;;;;;5051913;28;20029;-68
2023/04/25 01:06:39;;;;;;;2.53;1.85;;;11.00;96.40;;;;;;5052243;28;20029;-67
2023/04/25 01:09:05;;;;;;;5.03;2.15;;;11.00;96.50;;;;;;5053975;28;20021;-67
2023/04/25 01:11:31;;;;;;;3.22;2.10;;;11.00;96.40;;;;;;5056483;28;20467;-68
2023/04/25 01:13:57;;;;;;;3.80;2.03;;;11.00;96.30;;;;;;5056402;28;20021;-67
2023/04/25 01:16:23;;;;;;;3.70;2.10;;;11.00;96.30;;;;;;5056034;28;20029;-67
2023/04/25 01:18:51;;;;;;;4.30;2.10;;;11.00;96.40;;;;;;5056468;28;20036;-68
2023/04/25 01:21:16;;;;;;;3.03;2.05;;;11.00;96.50;;;;;;5055959;28;20392;-67
2023/04/25 01:23:43;;;;;;;2.65;2.08;;;11.00;96.60;;;;;;5056321;28;20028;-67
2023/04/25 01:26:10;;;;;;;3.83;2.00;;;11.00;96.40;;;;;;5055648;28;20475;-67
2023/04/25 01:28:36;;;;;;;2.40;1.88;;;11.00;96.20;;;;;;5056212;28;20027;-68
2023/04/25 01:31:02;;;;;;;3.17;1.80;;;11.00;96.20;;;;;;5055432;28;20453;-68
2023/04/25 01:33:29;;;;;;;4.90;2.30;;;10.90;96.20;;;;;;5056119;28;20092;-67
2023/04/25 01:35:54;;;;;;;3.75;2.10;;;11.00;96.00;;;;;;5056039;28;20040;-68
2023/04/25 01:38:20;;;;;;;3.83;2.40;;;11.00;95.90;;;;;;5055606;28;20017;-68
2023/04/25 01:40:47;;;;;;;4.72;1.80;;;10.90;95.80;;;;;;5055992;28;20122;-68
2023/04/25 01:43:14;;;;;;;3.95;2.00;;;10.90;95.70;;;;;;5055477;28;20033;-68
2023/04/25 01:45:41;;;;;;;4.32;2.45;;;10.90;95.70;;;;;;5055960;28;20056;-68
2023/04/25 01:48:08;;;;;;;3.42;2.28;;;10.90;95.80;;;;;;5055220;28;20029;-68
2023/04/25 01:50:34;;;;;;;2.47;2.15;;;10.90;95.70;;;;;;5055680;28;20049;-68
2023/04/25 01:53:00;;;;;;;3.17;2.40;;;10.90;95.70;;;;;;5055655;28;20025;-67
2023/04/25 01:55:25;;;;;;;2.85;2.17;;;10.90;95.50;;;;;;5055210;28;20500;-68
2023/04/25 01:57:51;;;;;;;3.90;2.17;;;10.90;95.50;;;;;;5055742;28;20025;-68
2023/04/25 02:00:17;;;;;;;7.10;2.55;;;10.90;95.60;;;;;;5054983;28;20025;-68
2023/04/25 02:02:43;;;;;;;2.85;2.50;;;10.90;95.40;;;;;;5055558;28;20040;-66
2023/04/25 02:05:08;;;;;;;2.90;2.28;;;10.90;95.50;;;;;;5055074;28;20071;-67
2023/04/25 02:07:34;;;;;;;3.72;2.58;;;10.90;95.50;;;;;;5054933;28;20389;-67
2023/04/25 02:10:00;;;;;;;3.22;2.17;;;10.90;95.40;;;;;;5055350;28;20017;-69
2023/04/25 02:12:30;;;;;;;5.03;2.40;;;10.90;95.40;;;;;;5054218;28;20576;-68
2023/04/25 02:14:56;;;;;;;3.13;2.30;;;10.90;95.60;;;;;;5055173;28;20120;-68
2023/04/25 02:17:22;;;;;;;3.13;2.20;;;10.90;95.70;;;;;;5054833;28;20110;-68
2023/04/25 02:19:47;;;;;;;6.13;2.47;;;10.90;95.50;;;;;;5054519;28;20213;-68
2023/04/25 02:22:13;;;;;;;2.13;1.90;;;10.80;95.40;;;;;;5053536;28;20506;-67
2023/04/25 02:24:39;;;;;;;2.88;2.25;;;10.80;95.60;;;;;;5055120;28;20028;-67
2023/04/25 02:27:05;;;;;;;4.13;2.40;;;10.80;95.70;;;;;;5054981;28;20052;-67
2023/04/25 02:29:31;;;;;;;5.53;2.33;;;10.80;96.00;;;;;;5054879;28;20025;-67
2023/04/25 02:31:57;;;;;;;4.68;2.60;;;10.80;95.90;;;;;;5054830;28;20075;-68
2023/04/25 02:34:22;;;;;;;2.80;2.33;;;10.80;96.10;;;;;;5054280;28;20466;-68
2023/04/25 02:36:50;;;;;;;3.20;2.42;;;10.80;96.30;;;;;;5054960;28;20096;-67
2023/04/25 02:39:16;;;;;;;4.43;2.75;;;10.80;96.50;;;;;;5053713;28;20044;-68
2023/04/25 02:41:42;;;;;;;3.53;2.20;;;10.70;96.50;;;;;;5054434;28;20055;-67
2023/04/25 02:44:07;;;;;;;2.85;2.30;;;10.70;96.70;;;;;;5053806;28;20088;-73
2023/04/25 02:46:33;;;;;;;4.97;2.70;;;10.60;96.70;;;;;;5054281;28;20033;-67
2023/04/25 02:48:59;;;;;;;2.40;2.20;;;10.60;96.80;;;;;;5054507;28;20449;-67
2023/04/25 02:51:24;;;;;;;2.90;2.60;;;10.60;96.90;;;;;;5054095;28;20389;-68
2023/04/25 02:53:50;;;;;;;7.25;3.00;;;10.60;97.10;;;;;;5054524;28;20025;-67
2023/04/25 02:56:16;;;;;;;2.90;2.15;;;10.50;97.10;;;;;;5053723;28;20037;-68
2023/04/25 02:58:41;;;;;;;3.85;2.22;;;10.50;97.20;;;;;;5054199;28;20024;-67
2023/04/25 03:01:07;;;;;;;3.42;2.72;;;10.50;97.30;;;;;;5054344;28;20021;-68
2023/04/25 03:03:32;;;;;;;3.65;2.65;;;10.50;97.30;;;;;;5053639;28;20028;-68
2023/04/25 03:05:58;;;;;;;3.10;2.35;;;10.50;97.60;;;;;;5054069;28;20386;-67
2023/04/25 03:08:25;;;;;;;4.25;2.58;;;10.40;97.60;;;;;;5053959;28;20587;-67
2023/04/25 03:10:51;;;;;;;4.03;2.65;;;10.40;97.70;;;;;;5054235;28;20045;-67
2023/04/25 03:13:17;;;;;;;4.47;2.72;;;10.40;97.40;;;;;;5053735;28;20021;-68
2023/04/25 03:15:43;;;;;;;5.55;2.97;;;10.40;97.50;;;;;;5053990;28;20029;-68
2023/04/25 03:18:09;;;;;;;4.45;2.90;;;10.40;97.40;;;;;;5053945;28;20025;-70
2023/04/25 03:20:35;;;;;;;3.53;2.53;;;10.40;97.40;;;;;;5053570;28;20436;-68
2023/04/25 03:23:01;;;;;;;4.53;2.53;;;10.40;97.30;;;;;;5053765;28;20021;-68
2023/04/25 03:25:26;;;;;;;4.00;2.28;;;10.40;97.30;;;;;;5053049;28;20107;-68
2023/04/25 03:27:52;;;;;;;4.57;2.65;;;10.30;97.20;;;;;;5053956;28;20033;-68
2023/04/25 03:30:17;;;;;;;4.40;2.55;;;10.30;97.20;;;;;;5052995;28;20025;-68
2023/04/25 03:32:43;;;;;;;5.60;2.75;;;10.30;97.20;;;;;;5053164;28;20024;-68
2023/04/25 03:35:09;;;;;;;5.40;2.58;;;10.30;97.10;;;;;;5053143;28;20044;-67
2023/04/25 03:37:34;;;;;;;3.50;2.88;;;10.30;97.50;;;;;;5052936;28;20082;-68
2023/04/25 03:40:00;;;;;;;3.17;2.70;;;10.30;97.40;;;;;;5053444;28;20025;-68
2023/04/25 03:42:25;;;;;;;4.00;2.38;;;10.30;97.40;;;;;;5052696;28;20021;-68
2023/04/25 03:44:52;;;;;;;3.65;2.70;;;10.30;97.20;;;;;;5053179;28;20052;-68
2023/04/25 03:47:17;;;;;;;3.38;2.55;;;10.20;97.30;;;;;;5052815;28;20520;-69
2023/04/25 03:49:44;;;;;;;2.78;2.40;;;10.20;97.20;;;;;;5053364;28;20168;-68
2023/04/25 03:52:10;;;;;;;6.75;3.05;;;10.20;97.10;;;;;;5052698;28;20029;-67
2023/04/25 03:54:35;;;;;;;3.60;2.97;;;10.10;97.10;;;;;;5052332;28;20499;-68
2023/04/25 03:57:01;;;;;;;3.25;2.55;;;10.10;96.90;;;;;;5053205;28;20029;-68
2023/04/25 03:59:27;;;;;;;4.35;2.50;;;10.10;96.90;;;;;;5052359;28;20450;-68
2023/04/25 04:01:52;;;;;;;3.33;2.80;;;10.10;96.90;;;;;;5052964;28;20511;-67
2023/04/25 04:04:18;;;;;;;3.50;2.83;;;10.10;96.90;;;;;;5052843;28;20041;-68
2023/04/25 04:06:44;;;;;;;6.93;3.58;;;10.10;96.70;;;;;;5052924;28;20525;-68
2023/04/25 04:09:11;;;;;;;3.22;2.60;;;10.10;96.80;;;;;;5053166;28;20033;-68
2023/04/25 04:11:38;;;;;;;3.55;2.90;;;10.00;96.80;;;;;;5052632;28;20486;-68
2023/04/25 04:14:05;;;;;;;5.30;3.10;;;10.00;96.90;;;;;;5052562;28;20021;-68
2023/04/25 04:16:31;;;;;;;5.13;2.60;;;10.00;96.60;;;;;;5052600;28;20078;-68
2023/04/25 04:18:56;;;;;;;4.68;3.10;;;10.00;96.60;;;;;;5053393;28;20497;-68
2023/04/25 04:21:22;;;;;;;5.88;3.20;;;10.00;96.70;;;;;;5052499;28;20025;-68
2023/04/25 04:23:48;;;;;;;5.13;2.70;;;10.00;96.70;;;;;;5052585;28;20366;-68
2023/04/25 04:26:16;;;;;;;4.65;2.90;;;10.00;96.50;;;;;;5052560;28;20056;-67
2023/04/25 04:28:43;;;;;;;3.50;2.90;;;10.00;96.70;;;;;;5052550;28;20046;-68
2023/04/25 04:31:10;;;;;;;4.65;3.03;;;10.00;96.50;;;;;;5052733;28;20029;-67
2023/04/25 04:33:36;;;;;;;7.65;3.13;;;10.00;96.50;;;;;;5052149;28;20057;-67
2023/04/25 04:36:02;;;;;;;5.05;3.03;;;10.00;96.50;;;;;;5051991;28;20496;-67
2023/04/25 04:38:29;;;;;;;4.68;2.92;;;10.00;96.50;;;;;;5051738;28;20029;-67
2023/04/25 04:40:55;;;;;;;4.22;2.83;;;10.00;96.40;;;;;;5051867;28;20037;-67
2023/04/25 04:43:22;;;;;;;5.10;3.40;;;10.00;96.40;;;;;;5051959;28;20033;-67
2023/04/25 04:45:49;;;;;;;4.10;3.08;;;9.90;96.30;;;;;;5052746;28;20053;-68
2023/04/25 04:48:16;;;;;;;4.50;3.15;;;9.90;96.00;;;;;;5052236;28;20037;-68
2023/04/25 04:50:45;;;;;;;5.40;3.08;;;9.90;96.00;;;;;;5051931;28;20021;-68
2023/04/25 04:53:11;;;;;;;3.58;2.92;;;9.90;95.90;;;;;;5052574;28;20031;-67
2023/04/25 04:55:37;;;;;;;6.97;3.20;;;9.90;95.60;;;;;;5051986;28;20372;-68
2023/04/25 04:58:03;;;;;;;6.93;3.53;;;9.90;95.60;;;;;;5052221;28;20087;-67
2023/04/25 05:00:29;;;;;;;6.07;3.80;;;9.90;95.60;;;;;;5052031;28;20100;-68
2023/04/25 05:02:55;;;;;;;3.72;2.70;;;9.90;95.60;;;;;;5052382;28;20040;-68
2023/04/25 05:05:21;;;;;;;4.75;3.20;;;9.90;95.60;;;;;;5052124;28;20036;-69
2023/04/25 05:07:47;;;;;;;4.03;3.17;;;9.90;95.50;;;;;;5052025;28;20393;-69
2023/04/25 05:10:12;;;;;;;5.15;3.25;;;10.00;95.30;;;;;;5052686;28;20021;-69
2023/04/25 05:12:38;;;;;;;6.75;3.30;;;9.90;95.30;;;;;;5051632;28;20025;-68
2023/04/25 05:15:04;;;;;;;5.03;3.50;;;9.90;95.30;;;;;;5052341;28;20191;-69
2023/04/25 05:17:30;;;;;;;5.68;3.17;;;9.90;95.30;;;;;;5051823;28;20354;-68
2023/04/25 05:19:56;;;;;;;4.68;3.45;;;9.90;95.40;;;;;;5052244;28;20036;-69
2023/04/25 05:22:22;;;;;;;4.43;3.33;;;9.90;95.40;;;;;;5051704;28;20036;-67
2023/04/25 05:24:48;;;;;;;4.03;3.30;;;9.90;95.60;;;;;;5052209;28;20029;-68
2023/04/25 05:27:16;;;;;;;5.78;3.15;;;9.90;95.80;;;;;;5051824;28;20029;-68
2023/04/25 05:29:41;;;;;;;8.43;3.95;;;9.90;95.80;;;;;;5051710;28;20532;-68
2023/04/25 05:32:08;;;;;;;6.55;3.45;;;9.90;96.10;;;;;;5051758;28;20056;-68
2023/04/25 05:34:34;;;;;;;8.05;3.55;;;9.80;96.10;;;;;;5051548;28;20037;-68
2023/04/25 05:37:00;;;;;;;5.47;3.53;;;9.80;96.30;;;;;;5052074;28;20079;-68
2023/04/25 05:39:26;;;;;;;8.73;3.75;;;9.90;96.50;;;;;;5051654;28;20052;-68
2023/04/25 05:41:51;;;;;;;6.05;3.38;;;9.90;96.40;;;;;;5051996;28;20025;-68
2023/04/25 05:44:17;;;;;;;5.80;3.30;;;10.10;96.40;;;;;;5051817;28;20148;-69
2023/04/25 05:46:43;;;;;;;5.10;3.50;;;10.20;96.30;;;;;;5051558;28;20029;-68
2023/04/25 05:49:09;;;;;;;7.63;3.42;;;10.50;96.20;;;;;;5051899;28;20021;-68
2023/04/25 05:51:34;;;;;;;6.25;3.55;;;10.70;95.40;;;;;;5051324;28;20029;-69
2023/04/25 05:54:00;;;;;;;4.40;3.65;;;11.10;94.50;;;;;;5051970;28;20033;-68
2023/04/25 05:56:26;;;;;;;4.97;3.45;;;11.40;93.40;;;;;;5054906;28;20489;-68
2023/04/25 05:58:51;;;;;;;5.28;3.47;;;11.80;92.20;;;;;;5055428;28;20163;-67
2023/04/25 06:01:17;;;;;;;4.35;2.90;;;12.30;91.20;;;;;;5055686;28;20025;-67
2023/04/25 06:03:43;;;;;;;5.25;3.20;;;12.90;89.50;;;;;;5054830;28;20043;-68
2023/04/25 06:06:09;;;;;;;5.53;3.28;;;13.50;86.60;;;;;;5054867;28;20032;-68
2023/04/25 06:08:35;;;;;;;4.93;2.88;;;14.00;82.90;;;;;;5054823;28;20111;-68
2023/04/25 06:11:01;;;;;;;5.65;3.30;;;14.40;79.60;;;;;;5055145;28;20109;-69
2023/04/25 06:13:26;;;;;;;6.07;2.90;;;14.50;78.40;;;;;;5054888;28;20458;-69
2023/04/25 06:15:52;;;;;;;4.60;3.03;;;14.70;77.30;;;;;;5054799;28;20029;-69
2023/04/25 06:18:17;;;;;;;4.63;3.10;;;14.80;76.00;;;;;;5055325;28;20433;-69
2023/04/25 06:20:43;;;;;;;4.20;2.78;;;15.00;74.90;;;;;;5054749;28;20458;-68
2023/04/25 06:23:09;;;;;;;6.22;3.17;;;15.20;74.60;;;;;;5055053;28;20031;-68
2023/04/25 06:25:34;;;;;;;4.30;3.03;;;15.40;73.30;;;;;;5054661;28;20036;-69
2023/04/25 06:28:00;;;;;;;5.93;2.85;;;15.50;71.50;;;;;;5055021;28;20021;-69
2023/04/25 06:30:26;;;;;;;4.47;2.55;;;15.70;70.90;;;;;;5054500;28;20047;-73
2023/04/25 06:32:52;;;;;;;3.80;3.00;;;15.80;69.00;;;;;;5054619;28;20092;-68
2023/04/25 06:35:19;;;;;;;3.80;2.80;;;16.00;68.50;;;;;;5054548;28;20061;-70
2023/04/25 06:37:44;;;;;;;7.35;2.85;;;16.10;67.30;;;;;;5054182;28;20445;-68
2023/04/25 06:40:10;;;;;;;4.55;2.65;;;16.30;66.30;;;;;;5054602;28;20053;-68
2023/04/25 06:42:36;;;;;;;4.32;2.58;;;16.40;64.20;;;;;;5054222;28;20067;-68
2023/04/25 06:45:02;;;;;;;4.18;2.50;;;16.60;63.10;;;;;;5054498;28;20447;-67
2023/04/25 06:47:29;;;;;;;2.83;2.20;;;16.80;62.20;;;;;;5054367;28;20175;-69
2023/04/25 06:49:55;;;;;;;3.67;2.60;;;17.20;61.80;;;;;;5054189;28;20148;-68
2023/04/25 06:52:21;;;;;;;4.38;2.42;;;17.60;58.90;;;;;;5054588;28;20025;-69
2023/04/25 06:54:47;;;;;;;2.63;2.00;;;18.20;58.60;;;;;;5052736;28;20036;-68
2023/04/25 06:57:13;;;;;;;3.90;2.58;;;19.00;56.40;;;;;;5054047;28;20112;-68
2023/04/25 06:59:38;;;;;;;2.80;2.42;;;19.90;54.50;;;;;;5053806;28;20032;-68
2023/04/25 07:02:05;;;;;;;4.93;3.00;;;20.60;50.80;;;;;;5054249;28;20029;-68
2023/04/25 07:04:31;;;;;;;5.90;2.42;;;20.90;49.40;;;;;;5053842;28;20099;-68
2023/04/25 07:06:57;;;;;;;2.85;2.35;;;21.40;47.30;;;;;;5053894;28;20469;-68
2023/04/25 07:09:23;;;;;;;3.92;2.40;;;21.90;45.90;;;;;;5053981;28;20108;-68
2023/04/25 07:11:48;;;;;;;2.60;2.40;;;22.70;45.00;;;;;;5052214;28;20028;-68
2023/04/25 07:14:14;;;;;;;3.60;2.47;;;23.20;44.90;;;;;;5054102;28;20072;-68
2023/04/25 07:16:40;;;;;;;7.40;2.70;;;23.80;42.00;;;;;;5053691;28;20039;-68
2023/04/25 07:19:06;;;;;;;4.35;2.38;;;23.90;40.80;;;;;;5054018;28;20021;-68
2023/04/25 07:21:32;;;;;;;4.78;2.53;;;23.90;40.40;;;;;;5053609;28;20043;-68
2023/04/25 07:23:58;;;;;;;3.50;2.28;;;24.30;40.40;;;;;;5053929;28;20366;-68
2023/04/25 07:26:24;;;;;;;4.95;2.67;;;24.60;40.80;;;;;;5053591;28;20025;-68
2023/04/25 07:28:51;;;;;;;2.70;2.17;;;23.70;40.00;;;;;;5053406;28;20040;-68
2023/04/25 07:31:18;;;;;;;2.92;2.15;;;23.90;40.30;;;;;;5053780;28;20108;-67
2023/04/25 07:33:45;;;;;;;3.65;2.05;;;24.50;40.20;;;;;;5053239;28;20112;-67
2023/04/25 07:36:12;;;;;;;3.03;1.98;;;25.10;39.50;;;;;;5053672;28;20025;-68
2023/04/25 07:38:38;;;;;;;3.15;2.10;;;25.60;39.30;;;;;;5053281;28;20037;-68
2023/04/25 07:41:04;;;;;;;2.92;2.13;;;26.00;37.60;;;;;;5053543;28;20064;-68
2023/04/25 07:43:30;;;;;;;6.72;2.35;;;26.50;36.40;;;;;;5053800;28;20480;-68
2023/04/25 07:45:56;;;;;;;3.35;2.17;;;26.70;36.10;;;;;;5052681;28;20059;-68
2023/04/25 07:48:22;;;;;;;4.05;2.40;;;26.60;35.30;;;;;;5053357;28;20036;-68
2023/04/25 07:50:48;;;;;;;2.17;1.73;;;26.50;35.10;;;;;;5052954;28;20029;-68
2023/04/25 07:53:13;;;;;;;2.72;1.90;;;26.50;35.70;;;;;;5053444;28;20476;-68
2023/04/25 07:55:40;;;;;;;3.10;2.03;;;26.40;34.40;;;;;;5052641;28;20407;-69
2023/04/25 07:58:09;;;;;;;4.43;1.90;;;26.30;35.20;;;;;;5053203;28;20044;-68
2023/04/25 08:00:35;;;;;;;5.25;2.22;;;26.40;34.90;;;;;;5052636;28;20414;-69
2023/04/25 08:03:01;;;;;;;6.63;2.20;;;26.30;34.50;;;;;;5053242;28;20170;-68
2023/04/25 08:05:26;;;;;;;4.35;2.75;;;26.10;35.30;;;;;;5053240;28;20495;-68
2023/04/25 08:07:52;;;;;;;4.78;2.58;;;26.00;35.10;;;;;;5052746;28;20298;-68
2023/04/25 08:10:18;;;;;;;6.07;2.47;;;24.90;36.20;;;;;;5053150;28;20370;-68
2023/04/25 08:12:43;;;;;;;3.65;2.33;;;25.00;36.80;;;;;;5052297;28;20036;-69
2023/04/25 08:15:09;;;;;;;3.33;2.55;;;25.00;37.30;;;;;;5052403;28;20043;-68
2023/04/25 08:17:35;;;;;;;4.70;2.35;;;25.00;36.50;;;;;;5052010;28;20029;-70
2023/04/25 08:20:01;;;;;;;2.88;2.30;;;24.10;36.40;;;;;;5053103;28;20025;-69
2023/04/25 08:22:30;;;;;;;4.28;2.30;;;23.50;37.80;;;;;;5052946;28;20117;-69
2023/04/25 08:24:55;;;;;;;3.65;2.55;;;23.50;38.40;;;;;;5051797;28;20033;-68
2023/04/25 08:27:21;;;;;;;3.03;2.15;;;22.80;38.90;;;;;;5052547;28;20492;-69
2023/04/25 08:29:47;;;;;;;3.40;2.38;;;22.70;39.70;;;;;;5052456;28;20021;-69
2023/04/25 08:32:13;;;;;;;4.10;2.42;;;22.80;40.30;;;;;;5052649;28;20458;-68
2023/04/25 08:34:41;;;;;;;3.83;2.65;;;22.90;40.30;;;;;;5052286;28;20040;-68
2023/04/25 08:37:09;;;;;;;2.42;2.22;;;22.60;40.30;;;;;;5052812;28;20040;-68
2023/04/25 08:39:35;;;;;;;2.70;2.50;;;21.90;41.10;;;;;;5052127;28;20112;-74
2023/04/25 08:42:05;;;;;;;3.00;2.50;;;21.40;42.20;;;;;;5052573;28;20103;-68
2023/04/25 08:44:35;;;;;;;2.57;1.90;;;21.40;42.20;;;;;;5052446;28;20461;-67
2023/04/25 08:47:05;;;;;;;3.90;2.40;;;21.20;43.20;;;;;;5052838;28;20254;-68
2023/04/25 08:49:34;;;;;;;3.53;2.10;;;21.10;43.50;;;;;;5052475;28;20033;-68
2023/04/25 08:52:04;;;;;;;7.72;1.98;;;21.00;43.20;;;;;;5051917;28;20032;-68
2023/04/25 08:54:31;;;;;;;3.53;1.80;;;20.90;44.00;;;;;;5052455;28;20036;-68
2023/04/25 08:57:01;;;;;;;2.50;1.92;;;20.90;42.90;;;;;;5051438;28;20163;-69
2023/04/25 08:59:28;;;;;;;2.42;2.17;;;20.60;43.30;;;;;;5052490;28;20029;-68
2023/04/25 09:01:54;;;;;;;5.78;2.78;;;20.30;44.50;;;;;;5051582;28;20389;-68
2023/04/25 09:04:20;;;;;;;3.63;2.35;;;20.00;45.20;;;;;;5052306;28;20052;-68
2023/04/25 09:06:47;;;;;;;3.58;2.33;;;19.70;45.70;;;;;;5052296;28;20025;-68
2023/04/25 09:09:13;;;;;;;3.65;2.38;;;19.20;46.20;;;;;;5052402;28;20028;-68
2023/04/25 09:11:40;;;;;;;2.78;2.25;;;18.90;47.70;;;;;;5051846;28;20033;-68
2023/04/25 09:14:13;;;;;;;3.13;2.20;;;18.50;48.50;;;;;;5052330;28;20108;-68
2023/04/25 09:16:56;;;;;;;2.40;2.00;;;18.20;49.40;;;;;;5051861;28;20039;-69
2023/04/25 09:19:25;;;;;;;5.90;2.50;;;17.80;50.60;;;;;;5051965;28;20478;-68
2023/04/25 09:21:55;;;;;;;2.80;2.30;;;17.50;52.00;;;;;;5051761;28;20074;-69
2023/04/25 09:24:44;;;;;;;3.47;2.08;;;17.30;52.60;;;;;;5052160;28;20032;-68
2023/04/25 09:27:11;;;;;;;4.53;2.30;;;17.00;53.10;;;;;;5051983;28;20558;-67
2023/04/25 09:29:38;;;;;;;3.35;2.20;;;16.60;53.60;;;;;;5053198;28;20056;-67
2023/04/25 09:32:17;;;;;;;2.65;2.13;;;16.40;54.80;;;;;;5056068;28;20534;-68
2023/04/25 09:34:49;;;;;;;5.60;2.60;;;16.10;56.00;;;;;;5055303;28;20492;-68
2023/04/25 09:37:25;;;;;;;2.63;1.85;;;15.90;57.20;;;;;;5055720;28;20393;-67
2023/04/25 09:39:55;;;;;;;4.28;2.65;;;15.60;60.00;;;;;;5055356;28;20029;-68
2023/04/25 09:42:25;;;;;;;3.55;2.70;;;15.40;62.50;;;;;;5055820;28;20106;-68
2023/04/25 09:44:55;;;;;;;5.78;2.55;;;15.10;65.60;;;;;;5055245;28;20398;-68
2023/04/25 09:47:23;;;;;;;3.22;2.58;;;15.00;67.40;;;;;;5055615;28;20079;-68
2023/04/25 09:49:50;;;;;;;3.00;2.53;;;14.80;70.00;;;;;;5055317;28;20029;-68
2023/04/25 09:52:25;;;;;;;4.78;3.08;;;14.70;70.40;;;;;;5055452;28;20040;-68
2023/04/25 09:54:51;;;;;;;5.15;2.90;;;14.70;70.40;;;;;;5054887;28;20029;-68
2023/04/25 09:57:20;;;;;;;4.60;2.80;;;14.60;70.70;;;;;;5055316;28;20033;-68
2023/04/25 09:59:47;;;;;;;4.30;2.05;;;14.70;71.50;;;;;;5055099;28;20044;-69
2023/04/25 10:02:19;;;;;;;4.03;2.20;;;14.60;69.70;;;;;;5055561;28;20112;-69
2023/04/25 10:04:48;;;;;;;3.25;1.95;;;14.60;69.20;;;;;;5055063;28;20055;-69
2023/04/25 10:07:14;;;;;;;3.22;2.40;;;14.60;71.20;;;;;;5055440;28;20098;-69
2023/04/25 10:09:41;;;;;;;2.80;2.05;;;14.60;70.80;;;;;;5055462;28;20025;-68
2023/04/25 10:12:08;;;;;;;3.90;1.88;;;14.60;69.10;;;;;;5055437;28;20040;-68
2023/04/25 10:14:34;;;;;;;3.85;1.65;;;14.50;67.10;;;;;;5055126;28;20112;-69
2023/04/25 10:17:01;;;;;;;3.75;1.50;;;14.50;65.80;;;;;;5054650;28;20096;-71
2023/04/25 10:19:28;;;;;;;6.15;3.70;;;14.60;67.00;;;;;;5054491;28;20109;-69
2023/04/25 10:22:12;;;;;;;2.13;1.23;;;14.70;64.80;;;;;;5054861;28;20025;-69
2023/04/25 10:24:39;;;;;;;3.28;1.40;;;14.80;65.30;;;;;;5054812;28;20049;-68
2023/04/25 10:27:06;;;;;;;2.90;1.50;;;14.80;64.70;;;;;;5054435;28;20040;-67
2023/04/25 10:29:32;;;;;;;2.10;1.85;;;14.80;64.00;;;;;;5054397;28;20025;-68
2023/04/25 10:31:58;;;;;;;1.60;1.20;;;14.80;64.70;;;;;;5054444;28;20090;-68
2023/04/25 10:34:38;;;;;;;0.88;0.80;;;14.60;63.20;;;;;;5054787;28;20021;-68
2023/04/25 10:37:04;;;;;;;1.17;1.07;;;14.50;62.90;;;;;;5054514;28;20389;-69
2023/04/25 10:39:30;;;;;;;1.83;1.00;;;14.30;62.90;;;;;;5054874;28;20028;-68
2023/04/25 10:41:57;;;;;;;1.70;1.02;;;14.20;62.30;;;;;;5053469;28;20032;-70
2023/04/25 10:44:26;;;;;;;1.73;1.00;;;14.20;62.80;;;;;;5054879;28;20056;-68
2023/04/25 10:46:52;;;;;;;1.83;0.95;;;14.10;62.90;;;;;;5053100;28;20051;-68
2023/04/25 10:49:32;;;;;;;2.15;1.02;;;14.10;63.00;;;;;;5054625;28;20501;-68
2023/04/25 10:52:16;;;;;;;2.28;1.10;;;14.10;63.30;;;;;;5054233;28;20369;-68
2023/04/25 10:54:46;;;;;;;1.65;1.08;;;14.10;63.20;;;;;;5054513;28;20029;-68
2023/04/25 10:57:46;;;;;;;1.83;1.30;;;14.20;62.90;;;;;;5054571;28;20503;-68
2023/04/25 11:00:18;;;;;;;2.05;1.10;;;14.30;62.20;;;;;;5051806;28;20041;-68
2023/04/25 11:02:51;;;;;;;2.28;1.40;;;14.50;63.00;;;;;;5054431;28;20021;-68
2023/04/25 11:05:31;;;;;;;2.28;1.33;;;14.70;63.00;;;;;;5054333;28;20021;-68
2023/04/25 11:07:59;;;;;;;2.00;1.40;;;15.00;63.00;;;;;;5053565;28;20024;-69
2023/04/25 11:10:29;;;;;;;2.83;1.52;;;15.20;61.70;;;;;;5054359;28;20032;-68
2023/04/25 11:12:54;;;;;;;1.98;1.65;;;15.40;62.20;;;;;;5053681;28;20546;-67
2023/04/25 11:15:21;;;;;;;2.38;1.58;;;15.50;61.70;;;;;;5053887;28;20239;-69
2023/04/25 11:17:46;;;;;;;2.25;1.63;;;15.60;61.90;;;;;;5053577;28;20033;-72
2023/04/25 11:20:13;;;;;;;2.55;1.88;;;15.80;61.70;;;;;;5054057;28;20021;-67
2023/04/25 11:22:43;;;;;;;2.25;1.70;;;15.90;61.70;;;;;;5053778;28;20032;-68
2023/04/25 11:25:11;;;;;;;3.15;1.83;;;16.10;61.70;;;;;;5053358;28;20100;-68
2023/04/25 11:27:53;;;;;;;3.42;1.75;;;16.10;61.10;;;;;;5053617;28;20474;-69
2023/04/25 11:30:20;;;;;;;3.78;1.70;;;16.20;60.70;;;;;;5053517;28;20487;-69
2023/04/25 11:32:46;;;;;;;2.58;1.60;;;16.30;61.40;;;;;;5053843;28;20064;-67
2023/04/25 11:35:13;;;;;;;6.05;2.20;;;16.40;59.70;;;;;;5053371;28;20070;-67
2023/04/25 11:37:43;;;;;;;4.78;1.98;;;16.20;63.40;;;;;;5053561;28;20043;-68
2023/04/25 11:40:11;;;;;;;2.65;1.70;;;15.60;68.90;;;;;;5051896;28;20416;-67
2023/04/25 11:42:43;;;;;;;2.75;1.60;;;15.00;69.90;;;;;;5053547;28;20029;-68
2023/04/25 11:45:10;;;;;;;3.55;1.42;;;14.10;73.00;;;;;;5053196;28;20061;-68
2023/04/25 11:47:36;;;;;;;3.83;1.88;;;13.50;76.80;;;;;;5053494;28;20108;-67
2023/04/25 11:50:03;;;;;;;3.13;1.75;;;13.00;80.10;;;;;;5053128;28;20063;-67
2023/04/25 11:52:45;;;;;;;3.70;1.65;;;12.70;83.80;;;;;;5052688;28;20025;-68
2023/04/25 11:55:15;;;;;;;4.35;1.90;;;12.50;86.00;;;;;;5052962;28;20036;-68
2023/04/25 11:57:42;;;;;;;4.35;1.83;;;12.40;87.80;;;;;;5053261;28;20033;-68
2023/04/25 12:00:16;;;;;;;5.68;2.20;;;12.30;88.70;;;;;;5052547;28;20478;-67
2023/04/25 12:02:47;;;;;;;2.97;1.77;;;12.30;90.10;;;;;;5052759;28;20445;-69
2023/04/25 12:05:15;;;;;;;2.67;1.92;;;12.30;90.10;;;;;;5052818;28;20104;-69
2023/04/25 12:07:41;;;;;;;3.13;1.52;;;12.20;89.40;;;;;;5053394;28;20067;-68
2023/04/25 12:10:07;;;;;;;2.97;1.30;;;12.20;88.20;;;;;;5052826;28;20033;-69
2023/04/25 12:12:37;;;;;;;2.55;1.50;;;12.30;87.10;;;;;;5052742;28;20037;-69
2023/04/25 12:15:29;;;;;;;2.17;1.20;;;12.40;87.30;;;;;;5052516;28;20029;-69
2023/04/25 12:17:55;;;;;;;2.15;1.70;;;12.40;85.70;;;;;;5051245;28;20049;-69
2023/04/25 12:20:24;;;;;;;3.70;1.55;;;12.60;89.30;;;;;;5052961;28;20100;-69
2023/04/25 12:22:51;;;;;;;2.25;1.50;;;12.80;90.30;;;;;;5052597;28;20052;-75
2023/04/25 12:25:39;;;;;;;3.60;1.60;;;12.90;89.70;;;;;;5052859;28;20064;-69
2023/04/25 12:28:15;;;;;;;1.67;1.40;;;13.10;90.80;;;;;;5052355;28;20029;-69
2023/04/25 12:31:02;;;;;;;1.52;1.20;;;13.20;88.60;;;;;;5052737;28;20099;-69
2023/04/25 12:33:32;;;;;;;2.20;1.20;;;13.30;89.30;;;;;;5052315;28;20033;-68
2023/04/25 12:35:59;;;;;;;2.70;1.27;;;13.40;87.40;;;;;;5052188;28;20029;-68
2023/04/25 12:38:28;;;;;;;2.08;1.10;;;13.50;85.80;;;;;;5052690;28;20156;-68
2023/04/25 12:40:54;;;;;;;3.10;1.20;;;13.50;82.40;;;;;;5051858;28;20027;-68
2023/04/25 12:43:21;;;;;;;1.15;1.00;;;13.60;81.70;;;;;;5052397;28;20033;-68
2023/04/25 12:45:51;;;;;;;1.98;1.10;;;13.60;80.70;;;;;;5052533;28;20106;-68
2023/04/25 12:48:18;;;;;;;2.57;1.40;;;13.60;80.80;;;;;;5052459;28;20052;-67